createdAt,value
2023-01-22T00:04:18.437Z,0
2023-01-22T00:09:14.736Z,0
2023-01-22T00:14:15.286Z,0
2023-01-22T00:19:14.047Z,0
2023-01-22T00:24:14.157Z,0
2023-01-22T00:29:11.459Z,0
2023-01-22T00:34:11.502Z,0
2023-01-22T00:39:10.889Z,0
2023-01-22T00:44:10.127Z,0
2023-01-22T00:49:09.225Z,0
2023-01-22T00:54:09.971Z,0
2023-01-22T00:58:59.528Z,0
2023-01-22T01:03:56.540Z,0
2023-01-22T01:08:57.453Z,0
2023-01-22T01:13:54.604Z,0
2023-01-22T01:18:54.366Z,0
2023-01-22T01:23:54.021Z,0
2023-01-22T01:28:54.047Z,0
2023-01-22T01:33:52.696Z,0
2023-01-22T01:38:52.553Z,0
2023-01-22T01:43:51.250Z,0
2023-01-22T01:48:52.944Z,0
2023-01-22T01:53:48.598Z,0
2023-01-22T01:58:48.695Z,0
2023-01-22T02:03:47.935Z,0
2023-01-22T02:08:48.860Z,0
2023-01-22T02:13:46.498Z,0
2023-01-22T02:18:46.137Z,0
2023-01-22T02:23:45.192Z,0
2023-01-22T02:28:44.653Z,0
2023-01-22T02:33:44.236Z,0
2023-01-22T02:38:44.061Z,0
2023-01-22T02:43:43.773Z,0
2023-01-22T02:48:44.181Z,0
2023-01-22T02:53:44.797Z,0
2023-01-22T02:58:41.122Z,0
2023-01-22T03:03:41.144Z,0
2023-01-22T03:08:40.424Z,0
2023-01-22T03:13:39.648Z,0
2023-01-22T03:18:38.781Z,0
2023-01-22T03:23:38.862Z,0
2023-01-22T03:28:38.139Z,0
2023-01-22T03:33:40.236Z,0
2023-01-22T03:38:46.410Z,0
2023-01-22T03:43:45.688Z,0
2023-01-22T03:48:46.204Z,0
2023-01-22T03:53:43.937Z,0
2023-01-22T03:58:43.671Z,0
2023-01-22T04:03:44.464Z,0
2023-01-22T04:08:42.574Z,0
2023-01-22T04:13:44.672Z,0
2023-01-22T04:18:42.731Z,0
2023-01-22T04:23:44.031Z,0
2023-01-22T04:28:30.070Z,0
2023-01-22T04:33:30.450Z,0
2023-01-22T04:38:29.939Z,0
2023-01-22T04:43:31.208Z,0
2023-01-22T04:48:27.150Z,0
2023-01-22T04:53:27.059Z,0
2023-01-22T04:58:26.462Z,0
2023-01-22T04:59:48.309Z,0
2023-01-22T05:04:47.840Z,0
2023-01-22T05:10:41.762Z,0
2023-01-22T05:14:47.839Z,0
2023-01-22T05:19:47.912Z,0
2023-01-22T05:24:47.639Z,0
2023-01-22T05:29:46.990Z,0
2023-01-22T05:34:47.850Z,0
2023-01-22T05:39:43.977Z,0
2023-01-22T05:44:44.513Z,0
2023-01-22T05:49:43.318Z,0
2023-01-22T05:54:43.836Z,0
2023-01-22T05:58:55.166Z,0
2023-01-22T06:03:55.465Z,0
2023-01-22T06:08:54.471Z,0
2023-01-22T06:13:54.197Z,0
2023-01-22T06:18:53.595Z,0
2023-01-22T06:23:53.762Z,0
2023-01-22T06:28:52.899Z,0
2023-01-22T06:33:53.013Z,0
2023-01-22T06:38:50.057Z,0
2023-01-22T06:43:50.342Z,0
2023-01-22T06:48:52.597Z,0
2023-01-22T06:53:48.698Z,0
2023-01-22T06:58:47.924Z,0
2023-01-22T07:03:48.527Z,0
2023-01-22T07:08:47.796Z,0
2023-01-22T07:13:47.513Z,0
2023-01-22T07:18:48.674Z,0
2023-01-22T07:23:45.149Z,0
2023-01-22T07:28:46.059Z,0
2023-01-22T07:33:45.338Z,0
2023-01-22T07:38:45.234Z,0
2023-01-22T07:43:41.954Z,0
2023-01-22T07:48:43.868Z,0
2023-01-22T07:53:40.689Z,0
2023-01-22T07:58:40.556Z,0
2023-01-22T08:03:39.898Z,0.01
2023-01-22T08:08:40.654Z,0.01
2023-01-22T08:13:39.857Z,0.01
2023-01-22T08:18:39.968Z,0.01
2023-01-22T08:23:37.736Z,0.02
2023-01-22T08:28:37.411Z,0.02
2023-01-22T08:33:37.351Z,0.02
2023-01-22T08:38:38.519Z,0.02
2023-01-22T08:43:47.090Z,0.02
2023-01-22T08:48:47.359Z,0.02
2023-01-22T08:53:47.005Z,0.03
2023-01-22T08:58:47.585Z,0.02
2023-01-22T09:03:45.081Z,0.02
2023-01-22T09:08:44.579Z,0.03
2023-01-22T09:13:45.816Z,0.03
2023-01-22T09:18:43.854Z,0.04
2023-01-22T09:23:42.921Z,0.04
2023-01-22T09:28:43.491Z,0.04
2023-01-22T09:33:41.147Z,0.05
2023-01-22T09:38:30.178Z,0.05
2023-01-22T09:43:29.770Z,0.05
2023-01-22T09:48:28.559Z,0.05
2023-01-22T09:53:27.919Z,0.06
2023-01-22T09:58:27.531Z,0.05
2023-01-22T09:59:50.062Z,0.05
2023-01-22T10:04:50.739Z,0.05
2023-01-22T10:09:46.955Z,0.06
2023-01-22T10:14:47.077Z,0.07
2023-01-22T10:19:46.407Z,0.07
2023-01-22T10:24:46.457Z,0.07
2023-01-22T10:29:44.065Z,0.07
2023-01-22T10:34:44.158Z,0.07
2023-01-22T10:39:43.328Z,0.08
2023-01-22T10:44:43.889Z,0.09
2023-01-22T10:49:42.626Z,0.09
2023-01-22T10:54:42.686Z,0.09
2023-01-22T10:58:53.755Z,0.09
2023-01-22T11:03:53.668Z,0.1
2023-01-22T11:08:54.801Z,0.09
2023-01-22T11:13:51.101Z,0.11
2023-01-22T11:18:51.042Z,0.1
2023-01-22T11:23:50.779Z,0.1
2023-01-22T11:28:50.178Z,0.1
2023-01-22T11:33:49.774Z,0.12
2023-01-22T11:38:50.054Z,0.11
2023-01-22T11:43:49.293Z,0.13
2023-01-22T11:48:50.646Z,0.14
2023-01-22T11:53:46.910Z,0.14
2023-01-22T11:58:46.833Z,0.15
2023-01-22T12:03:46.574Z,0.17
2023-01-22T12:08:46.391Z,0.16
2023-01-22T12:13:44.204Z,0.15
2023-01-22T12:18:44.848Z,0.15
2023-01-22T12:23:43.409Z,0.16
2023-01-22T12:28:43.311Z,0.13
2023-01-22T12:33:43.391Z,0.15
2023-01-22T12:38:43.526Z,0.16
2023-01-22T12:43:41.775Z,0.17
2023-01-22T12:48:41.674Z,0.15
2023-01-22T12:53:43.376Z,0.14
2023-01-22T12:58:38.794Z,0.13
2023-01-22T12:59:59.807Z,0.13
2023-01-22T13:05:00.030Z,0.13
2023-01-22T13:09:59.241Z,0.12
2023-01-22T13:14:58.953Z,0.12
2023-01-22T13:19:58.828Z,0.1
2023-01-22T13:24:58.617Z,0.06
2023-01-22T13:30:00.149Z,0.08
2023-01-22T13:34:55.928Z,0.07
2023-01-22T13:39:56.069Z,0.06
2023-01-22T13:44:55.572Z,0.04
2023-01-22T13:49:55.249Z,0.01
2023-01-22T13:54:53.264Z,0.02
2023-01-22T13:58:58.649Z,0.03
2023-01-22T14:03:58.472Z,0.04
2023-01-22T14:08:57.838Z,0.04
2023-01-22T14:13:57.368Z,0.03
2023-01-22T14:18:57.380Z,0.03
2023-01-22T14:23:57.058Z,0.04
2023-01-22T14:28:56.355Z,0.03
2023-01-22T14:33:55.382Z,0.03
2023-01-22T14:38:55.302Z,0.03
2023-01-22T14:43:55.087Z,0.03
2023-01-22T14:48:53.622Z,0.03
2023-01-22T14:58:38.198Z,0.01
2023-01-22T15:03:38.391Z,0.01
2023-01-22T15:08:37.607Z,0.01
2023-01-22T15:13:38.935Z,0
2023-01-22T15:18:46.102Z,0
2023-01-22T15:23:46.065Z,0
2023-01-22T15:28:45.336Z,0
2023-01-22T15:33:44.529Z,0
2023-01-22T15:38:43.754Z,0
2023-01-22T15:43:44.619Z,0
2023-01-22T15:48:42.515Z,0
2023-01-22T15:53:43.304Z,0
2023-01-22T15:58:18.106Z,0
2023-01-22T16:03:18.100Z,0
2023-01-22T16:08:16.042Z,0
2023-01-22T16:13:15.450Z,0
2023-01-22T16:18:14.489Z,0
2023-01-22T16:23:14.178Z,0
2023-01-22T16:28:13.640Z,0
2023-01-22T16:33:14.067Z,0
2023-01-22T16:38:13.707Z,0
2023-01-22T16:43:48.427Z,0
2023-01-22T16:48:11.376Z,0
2023-01-22T16:53:10.851Z,0
2023-01-22T16:58:10.140Z,0
2023-01-22T16:59:32.789Z,0
2023-01-22T17:04:30.615Z,0
2023-01-22T17:09:29.969Z,0
2023-01-22T17:14:29.594Z,0
2023-01-22T17:19:28.828Z,0
2023-01-22T17:24:28.140Z,0
2023-01-22T17:29:28.103Z,0
2023-01-22T17:34:28.038Z,0
2023-01-22T17:39:27.196Z,0
2023-01-22T17:44:28.507Z,0
2023-01-22T17:49:25.233Z,0
2023-01-22T17:54:25.354Z,0
2023-01-22T17:59:15.292Z,0
2023-01-22T18:04:15.053Z,0
2023-01-22T18:09:14.439Z,0
2023-01-22T18:14:14.589Z,0
2023-01-22T18:19:14.567Z,0
2023-01-22T18:24:15.530Z,0
2023-01-22T18:29:11.694Z,0
2023-01-22T18:34:12.155Z,0
2023-01-22T18:39:11.233Z,0
2023-01-22T18:44:12.702Z,0
2023-01-22T18:49:20.040Z,0
2023-01-22T18:54:18.492Z,0
2023-01-22T18:58:55.479Z,0
2023-01-22T19:03:57.487Z,0
2023-01-22T19:08:54.502Z,0
2023-01-22T19:13:54.290Z,0
2023-01-22T19:18:54.103Z,0
2023-01-22T19:23:52.356Z,0
2023-01-22T19:28:50.149Z,0
2023-01-22T19:33:50.579Z,0
2023-01-22T19:38:49.739Z,0
2023-01-22T19:43:51.066Z,0
2023-01-22T19:48:47.399Z,0
2023-01-22T19:53:47.640Z,0
2023-01-22T19:58:46.888Z,0
2023-01-22T20:03:47.064Z,0
2023-01-22T20:08:46.432Z,0
2023-01-22T20:13:44.742Z,0
2023-01-22T20:18:44.232Z,0
2023-01-22T20:23:43.384Z,0
2023-01-22T20:28:42.281Z,0
2023-01-22T20:33:42.147Z,0
2023-01-22T20:38:42.342Z,0
2023-01-22T20:43:41.732Z,0
2023-01-22T20:53:39.414Z,0
2023-01-22T20:58:39.147Z,0
2023-01-22T21:03:38.744Z,0
2023-01-22T21:08:36.925Z,0
2023-01-22T21:13:36.917Z,0
2023-01-22T21:18:36.672Z,0
2023-01-22T21:23:36.618Z,0
2023-01-22T21:28:37.830Z,0
2023-01-22T21:33:33.881Z,0
2023-01-22T21:38:34.751Z,0
2023-01-22T21:43:33.566Z,0
2023-01-22T21:48:33.409Z,0
2023-01-22T21:53:32.065Z,0
2023-01-22T21:58:31.279Z,0
2023-01-22T21:59:52.381Z,0
2023-01-22T22:04:51.979Z,0
2023-01-22T22:09:51.898Z,0
2023-01-22T22:14:51.280Z,0
2023-01-22T22:19:49.982Z,0
2023-01-22T22:24:49.716Z,0
2023-01-22T22:29:51.454Z,0
2023-01-22T22:34:47.553Z,0
2023-01-22T22:39:47.543Z,0
2023-01-22T22:44:47.453Z,0
2023-01-22T22:49:46.872Z,0
2023-01-22T22:54:46.876Z,0
2023-01-22T22:59:14.079Z,0
2023-01-22T23:04:13.978Z,0
2023-01-22T23:09:14.785Z,0
2023-01-22T23:14:10.576Z,0
2023-01-22T23:19:11.055Z,0
2023-01-22T23:24:20.559Z,0
2023-01-22T23:29:21.592Z,0
2023-01-22T23:34:18.504Z,0
2023-01-22T23:39:18.151Z,0
2023-01-22T23:44:20.182Z,0
2023-01-22T23:49:16.572Z,0
2023-01-22T23:54:16.588Z,0
2023-01-22T23:58:54.487Z,0
